Time;durP1;ratioP1;P1;durP2;ratioP2;P2;SDS_P1;SDS_P2;PMS_P1;PMS_P2;Temp;Humidity;BMP_temperature;BMP_pressure;BME280_temperature;BME280_humidity;BME280_pressure;Samples;Min_cycle;Max_cycle;Signal;HPM_P1;HPM_P2
2021/07/21 00:00:13;;;;;;;14.70;8.70;;;;;;;20.79;54.37;100475.91;6067664;23;20033;-86
2021/07/21 00:02:40;;;;;;;12.75;8.95;;;;;;;20.78;54.55;100479.56;6067067;23;20034;-86
2021/07/21 00:05:09;;;;;;;11.98;8.50;;;;;;;20.78;54.31;100478.75;6065564;23;20031;-86
2021/07/21 00:07:36;;;;;;;10.65;7.63;;;;;;;20.78;54.71;100476.06;6065880;23;20034;-86
2021/07/21 00:10:06;;;;;;;13.75;8.23;;;;;;;20.78;54.50;100484.09;6067220;23;20031;-86
2021/07/21 00:15:20;;;;;;;9.55;7.07;;;;;;;20.78;54.39;100484.94;6066942;23;20489;-86
2021/07/21 00:17:48;;;;;;;12.43;8.40;;;;;;;20.78;54.72;100478.75;6065870;23;20031;-85
2021/07/21 00:20:15;;;;;;;11.48;8.18;;;;;;;20.78;54.82;100487.59;6067556;23;20022;-85
2021/07/21 00:22:44;;;;;;;13.52;8.75;;;;;;;20.78;55.18;100492.13;6065722;23;20031;-85
2021/07/21 00:25:14;;;;;;;11.75;8.77;;;;;;;20.77;54.97;100482.38;6065665;23;20118;-86
2021/07/21 00:27:42;;;;;;;11.80;8.90;;;;;;;20.77;54.91;100474.34;6065686;23;20022;-85
2021/07/21 00:30:12;;;;;;;13.05;8.38;;;;;;;20.76;55.07;100476.22;6066876;23;20023;-86
2021/07/21 00:32:39;;;;;;;14.07;8.40;;;;;;;20.77;54.99;100477.88;6065642;23;20545;-86
2021/07/21 00:35:07;;;;;;;12.38;8.90;;;;;;;20.77;54.98;100474.34;6065391;23;20454;-84
2021/07/21 00:37:35;;;;;;;10.52;7.47;;;;;;;20.79;55.30;100477.75;6065575;23;20034;-84
2021/07/21 00:40:10;;;;;;;12.70;8.60;;;;;;;20.78;55.69;100478.75;6066889;23;20039;-84
2021/07/21 00:42:37;;;;;;;10.00;7.80;;;;;;;20.80;55.45;100469.59;6065957;23;20455;-84
2021/07/21 00:45:05;;;;;;;11.65;8.40;;;;;;;20.82;55.62;100475.66;6066930;23;20029;-85
2021/07/21 00:47:32;;;;;;;11.82;8.95;;;;;;;20.83;55.75;100471.16;6066953;23;20031;-85
2021/07/21 00:49:59;;;;;;;11.75;8.70;;;;;;;20.83;55.49;100471.97;6067085;23;20019;-84
2021/07/21 00:52:25;;;;;;;12.07;8.00;;;;;;;20.83;55.56;100463.94;6065231;23;20031;-84
2021/07/21 00:54:53;;;;;;;9.80;7.90;;;;;;;20.83;55.60;100460.44;6065438;23;20023;-84
2021/07/21 00:57:19;;;;;;;11.80;8.43;;;;;;;20.85;55.68;100465.66;6064435;23;20023;-84
2021/07/21 00:59:48;;;;;;;12.18;8.07;;;;;;;20.84;55.95;100459.47;6066942;23;20351;-85
2021/07/21 01:02:16;;;;;;;12.93;8.32;;;;;;;20.83;55.49;100455.09;6065476;23;20455;-84
2021/07/21 01:04:44;;;;;;;12.02;8.13;;;;;;;20.83;55.66;100461.28;6065206;23;20453;-84
2021/07/21 01:07:11;;;;;;;12.93;8.98;;;;;;;20.80;55.67;100460.72;6066951;23;20768;-84
2021/07/21 01:09:42;;;;;;;10.20;7.57;;;;;;;20.77;55.93;100461.84;6066984;23;20023;-85
2021/07/21 01:12:20;;;;;;;11.05;8.02;;;;;;;20.73;56.47;100459.56;6067153;23;20023;-85
2021/07/21 01:15:12;;;;;;;12.88;7.90;;;;;;;20.70;56.26;100468.72;6067015;23;20038;-85
2021/07/21 01:17:41;;;;;;;10.95;8.38;;;;;;;20.72;56.24;100472.09;6066248;23;20390;-85
2021/07/21 01:20:47;;;;;;;12.20;8.23;;;;;;;20.66;55.61;100464.59;6064982;23;20026;-85
2021/07/21 01:23:25;;;;;;;12.27;8.18;;;;;;;20.65;56.07;100466.47;6034176;23;20031;-84
2021/07/21 01:25:59;;;;;;;13.00;8.57;;;;;;;20.63;55.90;100465.72;6066924;23;20031;-85
2021/07/21 01:28:28;;;;;;;12.95;8.27;;;;;;;20.61;55.80;100465.03;6064953;23;20023;-85
2021/07/21 01:30:58;;;;;;;12.30;8.45;;;;;;;20.58;55.72;100459.94;6065580;23;20042;-85
2021/07/21 01:33:28;;;;;;;11.70;8.60;;;;;;;20.54;55.67;100463.88;6066714;23;20041;-85
2021/07/21 01:36:09;;;;;;;14.73;8.20;;;;;;;20.47;55.94;100460.91;6066546;23;20027;-85
2021/07/21 01:38:49;;;;;;;11.50;8.43;;;;;;;20.42;55.92;100460.47;6067563;23;20027;-85
2021/07/21 01:41:21;;;;;;;12.80;9.60;;;;;;;20.40;56.10;100471.28;6067747;23;20026;-85
2021/07/21 01:43:51;;;;;;;13.03;9.30;;;;;;;20.36;55.90;100463.66;6067200;23;20027;-85
2021/07/21 01:46:23;;;;;;;13.88;8.63;;;;;;;20.30;56.33;100467.72;6065741;23;20026;-84
2021/07/21 01:48:53;;;;;;;15.68;10.30;;;;;;;20.26;55.88;100460.97;6066971;23;20054;-84
2021/07/21 01:51:23;;;;;;;13.48;9.75;;;;;;;20.20;56.23;100465.00;6066941;23;20029;-85
2021/07/21 01:53:51;;;;;;;11.43;8.82;;;;;;;20.16;55.71;100469.78;6066354;23;20027;-85
2021/07/21 01:56:20;;;;;;;13.77;8.07;;;;;;;20.10;55.88;100472.97;6066500;23;20031;-85
2021/07/21 01:58:50;;;;;;;13.10;9.38;;;;;;;20.03;56.29;100467.31;6065346;23;20026;-85
2021/07/21 02:01:19;;;;;;;10.75;8.57;;;;;;;20.00;56.11;100467.56;6064878;23;20038;-85
2021/07/21 02:03:47;;;;;;;14.50;9.05;;;;;;;19.95;56.01;100467.09;6067019;23;20023;-85
2021/07/21 02:06:15;;;;;;;12.07;8.60;;;;;;;19.90;56.25;100464.81;6066288;23;20023;-85
2021/07/21 02:08:42;;;;;;;11.27;8.65;;;;;;;19.87;55.87;100465.06;6066687;23;20034;-85
2021/07/21 02:11:09;;;;;;;13.10;8.80;;;;;;;19.82;56.01;100469.97;6065838;23;20031;-86
2021/07/21 02:13:37;;;;;;;13.60;9.30;;;;;;;19.78;56.23;100471.22;6067150;23;20030;-85
2021/07/21 02:16:04;;;;;;;12.88;9.15;;;;;;;19.73;56.42;100465.41;6068436;23;20097;-85
2021/07/21 02:18:32;;;;;;;13.02;8.88;;;;;;;19.70;56.38;100468.34;6066496;23;20051;-85
2021/07/21 02:21:04;;;;;;;11.38;8.70;;;;;;;19.64;56.70;100472.38;6066782;23;20030;-85
2021/07/21 02:23:34;;;;;;;11.52;8.32;;;;;;;19.61;56.35;100475.28;6065414;23;20026;-85
2021/07/21 02:26:02;;;;;;;13.02;8.55;;;;;;;19.57;56.40;100472.03;6066879;23;20463;-84
2021/07/21 02:28:29;;;;;;;10.98;8.32;;;;;;;19.53;56.50;100475.94;6067056;23;20026;-85
2021/07/21 02:31:00;;;;;;;13.07;8.25;;;;;;;19.50;56.68;100477.03;6066951;23;20026;-85
2021/07/21 02:33:38;;;;;;;10.63;8.20;;;;;;;19.47;56.74;100471.94;6068424;23;20114;-85
2021/07/21 02:36:05;;;;;;;12.80;8.10;;;;;;;19.44;56.55;100471.38;6067885;23;20033;-85
2021/07/21 02:38:32;;;;;;;10.85;7.82;;;;;;;19.40;56.68;100465.44;6065553;23;20034;-85
2021/07/21 02:40:58;;;;;;;9.85;7.55;;;;;;;19.36;56.71;100459.50;6066660;23;20347;-84
2021/07/21 02:43:25;;;;;;;10.40;7.65;;;;;;;19.34;56.93;100472.13;6066322;23;20027;-85
2021/07/21 02:45:52;;;;;;;10.60;7.93;;;;;;;19.32;57.14;100467.91;6067948;23;20026;-85
2021/07/21 02:48:19;;;;;;;9.82;7.75;;;;;;;19.29;56.79;100468.16;6066224;23;20027;-85
2021/07/21 02:50:48;;;;;;;11.18;8.00;;;;;;;19.25;57.17;100475.56;6066510;23;20019;-85
2021/07/21 02:53:37;;;;;;;12.05;9.00;;;;;;;19.18;57.62;100471.72;6068263;23;20030;-85
2021/07/21 02:56:12;;;;;;;10.57;8.00;;;;;;;19.18;57.45;100463.69;6067433;23;20030;-85
2021/07/21 02:59:01;;;;;;;10.55;8.15;;;;;;;19.14;57.66;100474.63;6067958;23;20026;-85
2021/07/21 03:01:29;;;;;;;11.70;8.70;;;;;;;19.17;57.32;100476.19;6067963;23;20031;-86
2021/07/21 03:03:56;;;;;;;14.55;9.70;;;;;;;19.16;57.60;100481.66;6069401;23;20455;-85
2021/07/21 03:06:26;;;;;;;12.93;8.80;;;;;;;19.14;58.19;100479.94;6069440;23;20026;-86
2021/07/21 03:08:53;;;;;;;13.80;9.93;;;;;;;19.16;58.04;100481.66;6067847;23;20038;-85
2021/07/21 03:11:22;;;;;;;12.20;8.07;;;;;;;19.16;58.37;100481.66;6069640;23;20043;-85
2021/07/21 03:13:57;;;;;;;12.07;8.00;;;;;;;19.16;59.05;100476.31;6067797;23;20023;-85
2021/07/21 03:16:36;;;;;;;12.45;7.97;;;;;;;19.19;59.13;100484.06;6069783;23;20030;-86
2021/07/21 03:19:06;;;;;;;12.18;8.65;;;;;;;19.24;59.17;100482.72;6068946;23;20401;-86
2021/07/21 03:21:34;;;;;;;10.95;7.95;;;;;;;19.26;58.50;100477.25;6066643;23;20070;-85
2021/07/21 03:24:02;;;;;;;16.83;9.93;;;;;;;19.29;58.75;100478.81;6067933;23;20023;-86
2021/07/21 03:26:32;;;;;;;11.75;9.07;;;;;;;19.31;58.53;100482.19;6069430;23;20034;-85
2021/07/21 03:28:59;;;;;;;11.68;8.50;;;;;;;19.34;58.50;100482.81;6069121;23;20026;-86
2021/07/21 03:31:26;;;;;;;13.85;9.45;;;;;;;19.35;58.79;100481.84;6067872;23;20023;-85
2021/07/21 03:34:05;;;;;;;15.10;9.55;;;;;;;19.34;59.41;100485.47;6067951;23;20030;-85
2021/07/21 03:36:37;;;;;;;11.90;9.15;;;;;;;19.38;59.44;100489.59;6067752;23;20390;-85
2021/07/21 03:39:06;;;;;;;12.07;9.02;;;;;;;19.44;59.18;100488.22;6068813;23;20026;-85
2021/07/21 03:41:37;;;;;;;12.38;8.85;;;;;;;19.44;59.84;100493.56;6069230;23;20351;-86
2021/07/21 03:44:06;;;;;;;11.15;8.55;;;;;;;19.48;58.94;100495.00;6066009;23;20022;-86
2021/07/21 03:46:39;;;;;;;14.77;8.60;;;;;;;19.48;59.31;100488.84;6066274;23;20034;-86
2021/07/21 03:49:08;;;;;;;11.63;8.40;;;;;;;19.51;58.63;100496.59;6067097;23;20029;-85
2021/07/21 03:51:37;;;;;;;13.73;8.93;;;;;;;19.52;59.21;100499.09;6068812;23;20033;-85
2021/07/21 03:54:07;;;;;;;11.68;8.18;;;;;;;19.55;59.56;100494.50;6069336;23;20022;-86
2021/07/21 03:56:37;;;;;;;12.48;9.07;;;;;;;19.57;59.76;100490.72;6066543;23;20031;-86
2021/07/21 03:59:06;;;;;;;10.48;7.82;;;;;;;19.60;59.43;100492.28;6067599;23;20026;-86
2021/07/21 04:01:38;;;;;;;11.63;8.50;;;;;;;19.61;60.05;100494.84;6065745;23;20027;-86
2021/07/21 04:04:05;;;;;;;13.60;9.38;;;;;;;19.64;59.15;100486.56;6065546;23;20029;-85
2021/07/21 04:06:33;;;;;;;13.20;8.48;;;;;;;19.66;59.04;100489.94;6067187;23;20030;-85
2021/07/21 04:09:06;;;;;;;13.23;8.52;;;;;;;19.67;59.47;100488.13;6067458;23;20023;-85
2021/07/21 04:11:34;;;;;;;14.70;9.00;;;;;;;19.71;59.08;100494.06;6066003;23;20324;-85
2021/07/21 04:14:03;;;;;;;16.52;8.95;;;;;;;19.71;59.10;100494.06;6066984;23;20027;-85
2021/07/21 04:16:33;;;;;;;13.65;9.30;;;;;;;19.71;59.08;100484.25;6065880;23;20034;-85
2021/07/21 04:19:03;;;;;;;11.85;8.00;;;;;;;19.73;59.00;100486.78;6066119;23;20033;-85
2021/07/21 04:21:30;;;;;;;12.63;8.75;;;;;;;19.73;59.09;100490.28;6065091;23;20467;-85
2021/07/21 04:24:02;;;;;;;11.30;8.60;;;;;;;19.75;59.17;100495.50;6066917;23;20022;-85
2021/07/21 04:26:32;;;;;;;11.57;8.70;;;;;;;19.77;59.00;100498.88;6065635;23;20034;-85
2021/07/21 04:29:00;;;;;;;13.05;8.82;;;;;;;19.77;58.82;100502.41;6065307;23;20424;-85
2021/07/21 04:31:26;;;;;;;13.45;9.20;;;;;;;19.77;59.12;100505.06;6065762;23;20063;-83
2021/07/21 04:33:57;;;;;;;15.77;9.93;;;;;;;19.78;59.10;100514.78;6066873;23;20031;-85
2021/07/21 04:36:24;;;;;;;13.13;9.23;;;;;;;19.78;59.23;100506.75;6067479;23;20027;-85
2021/07/21 04:38:52;;;;;;;12.15;9.32;;;;;;;19.79;59.47;100512.97;6065662;23;20560;-86
2021/07/21 04:41:22;;;;;;;15.27;10.18;;;;;;;19.79;59.52;100512.97;6066947;23;20023;-85
2021/07/21 04:43:50;;;;;;;11.85;9.75;;;;;;;19.81;59.45;100511.00;6066799;23;20037;-85
2021/07/21 04:46:19;;;;;;;14.02;10.05;;;;;;;19.84;59.59;100512.59;6067223;23;20030;-85
2021/07/21 04:48:46;;;;;;;15.10;9.50;;;;;;;19.87;59.71;100518.50;6066582;23;20027;-85
2021/07/21 04:51:17;;;;;;;11.80;9.18;;;;;;;19.89;59.66;100521.06;6065120;23;20022;-86
2021/07/21 04:53:43;;;;;;;13.23;9.45;;;;;;;19.93;59.63;100520.66;6066919;23;20031;-85
2021/07/21 04:56:10;;;;;;;12.88;9.43;;;;;;;19.96;59.51;100524.88;6065143;23;20034;-85
2021/07/21 04:58:37;;;;;;;17.73;10.43;;;;;;;19.99;59.45;100519.31;6066806;23;20099;-85
2021/07/21 05:01:03;;;;;;;14.77;10.30;;;;;;;20.02;59.14;100531.56;6067013;23;20023;-86
2021/07/21 05:03:33;;;;;;;14.75;10.20;;;;;;;20.02;59.50;100523.56;6064955;23;20027;-85
2021/07/21 05:06:02;;;;;;;13.93;8.95;;;;;;;20.02;59.08;100529.75;6065101;23;20098;-85
2021/07/21 05:08:31;;;;;;;12.07;8.95;;;;;;;20.03;59.30;100527.91;6066026;23;20026;-86
2021/07/21 05:10:59;;;;;;;13.85;9.48;;;;;;;20.04;59.27;100532.31;6068372;23;20022;-86
2021/07/21 05:13:29;;;;;;;14.15;9.32;;;;;;;20.05;59.47;100534.00;6072217;23;20348;-86
2021/07/21 05:15:56;;;;;;;14.95;9.38;;;;;;;20.07;59.49;100537.38;6068511;23;20351;-86
2021/07/21 05:18:22;;;;;;;12.20;8.60;;;;;;;20.10;59.49;100541.59;6067988;23;20459;-85
2021/07/21 05:20:49;;;;;;;16.27;9.90;;;;;;;20.13;59.65;100533.31;6066757;23;20027;-85
2021/07/21 05:23:16;;;;;;;13.98;9.75;;;;;;;20.16;60.00;100543.75;6065177;23;20023;-88
2021/07/21 05:25:42;;;;;;;13.18;9.25;;;;;;;20.21;60.51;100538.88;6066688;23;20031;-87
2021/07/21 05:28:11;;;;;;;14.38;10.23;;;;;;;20.26;60.50;100542.00;6066855;23;20411;-87
2021/07/21 05:30:38;;;;;;;16.83;10.38;;;;;;;20.31;60.28;100542.44;6065765;23;20027;-87
2021/07/21 05:33:05;;;;;;;17.08;10.43;;;;;;;20.39;60.05;100543.59;6066835;23;20367;-87
2021/07/21 05:35:31;;;;;;;14.25;10.02;;;;;;;20.43;60.36;100537.88;6065377;23;20062;-87
2021/07/21 05:37:58;;;;;;;15.15;9.88;;;;;;;20.50;60.39;100548.03;6065545;23;20034;-86
2021/07/21 05:40:25;;;;;;;13.20;9.55;;;;;;;20.55;60.39;100552.00;6064165;23;20022;-87
2021/07/21 05:42:52;;;;;;;13.88;9.00;;;;;;;20.59;60.64;100544.56;6065273;23;20035;-88
2021/07/21 05:45:18;;;;;;;15.60;9.68;;;;;;;20.64;60.21;100553.00;6066304;23;20027;-87
2021/07/21 05:47:45;;;;;;;13.43;9.55;;;;;;;20.69;59.93;100547.28;6067835;23;20022;-87
2021/07/21 05:50:12;;;;;;;11.43;7.88;;;;;;;20.74;60.01;100560.25;6068926;23;20756;-87
2021/07/21 05:52:38;;;;;;;11.55;9.13;;;;;;;20.79;60.32;100555.34;6067221;23;20031;-88
2021/07/21 05:55:06;;;;;;;11.70;8.63;;;;;;;20.82;60.10;100549.75;6066815;23;20030;-87
2021/07/21 05:57:33;;;;;;;14.63;10.20;;;;;;;20.87;60.12;100560.00;6068808;23;20026;-88
2021/07/21 06:00:00;;;;;;;10.77;7.85;;;;;;;20.91;59.96;100561.47;6065201;23;20026;-88
2021/07/21 06:02:27;;;;;;;11.18;7.72;;;;;;;20.95;59.71;100562.91;6067099;23;20022;-88
2021/07/21 06:04:54;;;;;;;12.95;7.82;;;;;;;21.01;59.63;100558.84;6066260;23;20053;-88
2021/07/21 06:07:21;;;;;;;12.95;8.82;;;;;;;21.03;59.38;100559.53;6066199;23;20019;-88
2021/07/21 06:09:48;;;;;;;14.45;8.85;;;;;;;21.06;59.43;100560.13;6066878;23;20030;-88
2021/07/21 06:12:14;;;;;;;15.90;8.45;;;;;;;21.10;59.59;100555.34;6066890;23;20033;-87
2021/07/21 06:14:42;;;;;;;13.98;8.32;;;;;;;21.15;59.05;100555.75;6066817;23;20027;-87
2021/07/21 06:17:09;;;;;;;16.27;8.50;;;;;;;21.17;58.98;100559.16;6068215;23;20475;-87
2021/07/21 06:19:36;;;;;;;11.75;8.18;;;;;;;21.21;58.87;100565.09;6067468;23;20026;-88
2021/07/21 06:22:04;;;;;;;16.45;8.95;;;;;;;21.24;59.00;100569.31;6069010;23;20022;-87
2021/07/21 06:24:33;;;;;;;13.13;7.75;;;;;;;21.29;59.16;100575.09;6067186;23;20029;-87
2021/07/21 06:27:02;;;;;;;12.55;8.13;;;;;;;21.32;58.70;100573.00;6067322;23;20026;-88
2021/07/21 06:29:29;;;;;;;11.27;8.02;;;;;;;21.35;58.18;100575.38;6066842;23;20038;-87
2021/07/21 06:31:56;;;;;;;12.25;7.70;;;;;;;21.39;58.24;100580.47;6066927;23;20027;-87
2021/07/21 06:34:23;;;;;;;14.50;8.23;;;;;;;21.41;58.18;100576.69;6067456;23;20029;-86
2021/07/21 06:36:50;;;;;;;13.07;9.02;;;;;;;21.43;58.25;100582.75;6067920;23;20347;-88
2021/07/21 06:39:20;;;;;;;11.95;8.00;;;;;;;21.46;58.08;100584.31;6068665;23;20019;-88
2021/07/21 06:41:47;;;;;;;11.35;7.75;;;;;;;21.47;58.59;100589.53;6068676;23;20400;-88
2021/07/21 06:48:41;;;;;;;10.55;7.07;;;;;;;21.48;58.07;100595.72;6065037;23;20507;-85
2021/07/21 06:52:12;;;;;;;8.93;6.60;;;;;;;21.52;57.79;100596.31;5989665;23;20026;-85
2021/07/21 06:55:33;;;;;;;10.10;7.22;;;;;;;21.58;57.35;100601.09;5994236;23;20053;-84
2021/07/21 06:59:15;;;;;;;8.13;6.28;;;;;;;21.55;57.69;100604.03;6065119;23;20050;-86
2021/07/21 07:02:00;;;;;;;12.07;7.50;;;;;;;21.54;57.47;100608.56;6064681;23;20023;-86
2021/07/21 07:04:28;;;;;;;10.30;7.63;;;;;;;21.58;57.16;100610.00;6067110;23;20106;-84
2021/07/21 07:06:55;;;;;;;10.15;7.82;;;;;;;21.57;57.16;100618.16;6066225;23;20030;-85
2021/07/21 07:09:22;;;;;;;9.48;7.15;;;;;;;21.54;57.51;100611.25;6066699;23;20030;-85
2021/07/21 07:11:50;;;;;;;13.43;8.00;;;;;;;21.54;57.33;100616.59;6066809;23;20026;-85
2021/07/21 07:14:18;;;;;;;12.02;8.25;;;;;;;21.54;57.16;100621.97;6068075;23;20034;-85
2021/07/21 07:16:45;;;;;;;11.77;7.93;;;;;;;21.52;57.13;100617.75;6067939;23;20030;-85
2021/07/21 07:19:12;;;;;;;10.68;8.07;;;;;;;21.52;56.80;100617.75;6067958;23;20030;-84
2021/07/21 07:21:39;;;;;;;11.57;7.68;;;;;;;21.50;57.03;100620.53;6066388;23;20023;-86
2021/07/21 07:24:07;;;;;;;12.52;8.00;;;;;;;21.47;57.00;100616.31;6067697;23;20598;-85
2021/07/21 07:26:35;;;;;;;11.50;7.65;;;;;;;21.47;57.76;100610.09;6067909;23;20027;-86
2021/07/21 07:29:03;;;;;;;15.20;8.52;;;;;;;21.47;57.67;100618.13;6065949;23;20105;-84
2021/07/21 07:31:30;;;;;;;13.10;7.70;;;;;;;21.49;57.58;100624.19;6067749;23;20027;-85
2021/07/21 07:33:57;;;;;;;12.32;8.20;;;;;;;21.52;57.54;100623.91;6066218;23;20105;-85
2021/07/21 07:36:24;;;;;;;13.07;8.55;;;;;;;21.54;57.73;100624.66;6066500;23;20046;-85
2021/07/21 07:38:51;;;;;;;8.85;7.40;;;;;;;21.58;57.40;100625.19;6067877;23;20030;-85
2021/07/21 07:41:20;;;;;;;12.48;7.70;;;;;;;21.60;57.13;100625.91;6068242;23;20616;-86
2021/07/21 07:43:51;;;;;;;11.90;7.68;;;;;;;21.63;57.39;100622.94;6065737;23;20027;-86
2021/07/21 07:46:19;;;;;;;9.45;7.53;;;;;;;21.65;57.42;100626.34;6067963;23;20027;-86
2021/07/21 07:48:46;;;;;;;10.50;7.60;;;;;;;21.68;56.96;100625.22;6066411;23;20027;-86
2021/07/21 07:51:12;;;;;;;8.40;6.65;;;;;;;21.70;57.04;100629.47;6067674;23;20019;-85
2021/07/21 07:53:39;;;;;;;10.02;7.35;;;;;;;21.73;56.57;100633.72;6066328;23;20031;-84
2021/07/21 07:56:06;;;;;;;12.82;7.18;;;;;;;21.74;57.25;100632.72;6067571;23;20023;-84
2021/07/21 07:58:32;;;;;;;11.88;7.60;;;;;;;21.76;56.58;100629.91;6067641;23;20023;-86
2021/07/21 08:00:59;;;;;;;11.95;8.13;;;;;;;21.76;56.51;100632.59;6067190;23;20082;-85
2021/07/21 08:03:26;;;;;;;11.50;7.93;;;;;;;21.77;56.51;100640.50;6067581;23;20023;-86
2021/07/21 08:05:54;;;;;;;13.48;7.65;;;;;;;21.74;56.53;100628.22;6065060;23;20023;-85
2021/07/21 08:08:21;;;;;;;10.07;7.45;;;;;;;21.75;56.97;100634.41;6064915;23;20019;-85
2021/07/21 08:10:52;;;;;;;10.43;7.47;;;;;;;21.73;56.53;100639.94;6066971;23;20022;-86
2021/07/21 08:13:22;;;;;;;12.43;7.93;;;;;;;21.74;56.33;100640.75;6065091;23;20023;-86
2021/07/21 08:15:49;;;;;;;12.35;8.35;;;;;;;21.75;56.23;100639.78;6064790;23;20406;-86
2021/07/21 08:18:16;;;;;;;11.80;7.80;;;;;;;21.73;56.03;100639.94;6065242;23;20086;-86
2021/07/21 08:20:44;;;;;;;10.57;7.45;;;;;;;21.74;56.19;100632.72;6065077;23;20023;-86
2021/07/21 08:23:12;;;;;;;10.88;7.53;;;;;;;21.74;56.28;100633.59;6064899;23;20030;-84
2021/07/21 08:25:39;;;;;;;14.70;7.55;;;;;;;21.73;56.37;100634.59;6064864;23;20026;-85
2021/07/21 08:28:06;;;;;;;11.82;6.90;;;;;;;21.75;56.75;100634.41;6065764;23;20030;-84
2021/07/21 08:30:33;;;;;;;9.65;7.78;;;;;;;21.79;56.52;100640.38;6066928;23;20023;-86
2021/07/21 08:33:04;;;;;;;12.05;7.82;;;;;;;21.82;56.31;100640.06;6064596;23;20086;-85
2021/07/21 08:35:34;;;;;;;9.95;7.60;;;;;;;21.85;56.92;100637.97;6064027;23;20030;-84
2021/07/21 08:38:08;;;;;;;9.65;7.22;;;;;;;21.92;57.19;100645.44;6065060;23;20149;-85
2021/07/21 08:40:40;;;;;;;11.32;7.60;;;;;;;21.99;57.06;100635.84;6065251;23;20400;-84
2021/07/21 08:43:23;;;;;;;11.65;7.32;;;;;;;22.07;56.71;100638.69;6064891;23;20463;-85
2021/07/21 08:45:52;;;;;;;15.50;7.68;;;;;;;22.12;56.98;100632.88;6066331;23;20026;-84
2021/07/21 08:48:40;;;;;;;9.35;6.93;;;;;;;22.16;56.70;100642.31;6066141;23;20054;-85
2021/07/21 08:51:09;;;;;;;11.38;7.28;;;;;;;22.28;57.07;100644.88;6065678;23;20030;-85
2021/07/21 08:53:37;;;;;;;10.10;6.85;;;;;;;22.35;56.55;100646.00;6066394;23;20022;-84
2021/07/21 08:56:05;;;;;;;11.30;7.20;;;;;;;22.41;56.12;100649.94;6063908;23;20392;-84
2021/07/21 08:58:42;;;;;;;11.40;7.70;;;;;;;22.45;55.54;100652.19;6064888;23;20029;-84
2021/07/21 09:01:17;;;;;;;12.60;7.75;;;;;;;22.53;56.61;100648.78;6066784;23;20033;-84
2021/07/21 09:04:04;;;;;;;9.30;7.55;;;;;;;22.61;56.30;100645.44;6066044;23;20476;-85
2021/07/21 09:06:38;;;;;;;8.05;5.65;;;;;;;22.69;56.07;100640.16;6067149;23;20054;-85
2021/07/21 09:09:08;;;;;;;10.43;7.13;;;;;;;22.78;56.32;100649.19;6066317;23;20027;-85
2021/07/21 09:12:06;;;;;;;10.32;6.82;;;;;;;22.84;55.74;100650.44;6065312;23;20023;-85
2021/07/21 09:14:38;;;;;;;11.32;6.30;;;;;;;22.94;55.54;100650.41;6065716;23;20027;-84
2021/07/21 09:17:07;;;;;;;8.55;6.30;;;;;;;23.01;55.01;100652.38;6066709;23;20081;-85
2021/07/21 09:19:42;;;;;;;8.07;6.05;;;;;;;23.05;54.65;100652.91;6066365;23;20455;-84
2021/07/21 09:22:13;;;;;;;8.55;6.43;;;;;;;23.14;54.76;100653.88;6067737;23;20023;-87
2021/07/21 09:24:41;;;;;;;8.35;6.18;;;;;;;23.19;54.62;100650.72;6069192;23;20526;-85
2021/07/21 09:27:51;;;;;;;8.85;6.72;;;;;;;23.21;54.76;100660.31;6067907;23;20095;-87
2021/07/21 09:30:27;;;;;;;10.02;6.32;;;;;;;23.30;54.90;100658.59;6063978;23;20485;-87
2021/07/21 09:32:58;;;;;;;7.60;6.00;;;;;;;23.34;54.33;100651.09;6067454;23;20031;-86
2021/07/21 09:35:32;;;;;;;7.78;5.90;;;;;;;23.35;53.80;100653.66;6067828;23;20034;-87
2021/07/21 09:38:01;;;;;;;10.95;6.07;;;;;;;23.40;54.29;100654.03;6067725;23;20527;-87
2021/07/21 09:40:28;;;;;;;9.10;6.07;;;;;;;23.44;54.24;100654.59;6067829;23;20037;-89
2021/07/21 09:42:56;;;;;;;8.80;6.18;;;;;;;23.45;54.37;100658.97;6068777;23;20045;-88
2021/07/21 09:45:23;;;;;;;8.25;6.30;;;;;;;23.47;53.78;100665.03;6068658;23;20023;-88
2021/07/21 09:47:58;;;;;;;9.13;6.30;;;;;;;23.45;53.82;100658.97;6067533;23;20030;-88
2021/07/21 09:50:28;;;;;;;8.68;6.25;;;;;;;23.47;53.60;100656.97;6067564;23;20029;-87
2021/07/21 09:53:01;;;;;;;9.15;6.70;;;;;;;23.48;53.51;100664.06;6067976;23;20023;-88
2021/07/21 09:55:28;;;;;;;8.98;6.38;;;;;;;23.50;53.92;100664.75;6068708;23;20023;-88
2021/07/21 09:57:58;;;;;;;7.93;6.40;;;;;;;23.51;53.91;100662.91;6068732;23;20023;-88
2021/07/21 10:00:30;;;;;;;8.25;6.32;;;;;;;23.51;53.93;100655.66;6068684;23;20026;-89
2021/07/21 10:03:16;;;;;;;9.80;7.67;;;;;;;23.51;53.51;100658.34;6067186;23;20097;-88
2021/07/21 10:06:08;;;;;;;9.07;7.55;;;;;;;23.55;53.86;100659.75;6068752;23;20023;-89
2021/07/21 10:08:44;;;;;;;8.38;6.72;;;;;;;23.62;54.02;100667.22;6067199;23;20093;-86
2021/07/21 10:11:36;;;;;;;12.90;7.88;;;;;;;23.65;53.97;100664.22;6068226;23;20082;-86
2021/07/21 10:14:03;;;;;;;8.00;6.82;;;;;;;23.74;53.80;100662.47;6066883;23;20027;-85
2021/07/21 10:16:44;;;;;;;9.48;7.32;;;;;;;23.76;53.82;100664.00;6066551;23;20490;-85
2021/07/21 10:19:11;;;;;;;9.55;7.55;;;;;;;23.85;53.73;100669.47;6068675;23;20023;-85
2021/07/21 10:21:41;;;;;;;9.98;7.47;;;;;;;23.90;53.44;100662.66;6067327;23;20030;-84
2021/07/21 10:24:08;;;;;;;8.43;6.95;;;;;;;23.97;53.79;100665.56;6068660;23;20096;-84
2021/07/21 10:26:36;;;;;;;11.25;6.97;;;;;;;24.05;53.73;100662.09;6068491;23;20027;-84
2021/07/21 10:29:04;;;;;;;9.80;7.18;;;;;;;24.15;52.89;100659.38;6066804;23;20034;-84
2021/07/21 10:31:30;;;;;;;10.70;8.38;;;;;;;24.25;53.38;100659.28;6068820;23;20391;-85
2021/07/21 10:33:57;;;;;;;10.13;7.55;;;;;;;24.38;52.87;100653.50;6068127;23;20018;-84
2021/07/21 10:36:24;;;;;;;11.35;8.02;;;;;;;24.51;52.77;100653.09;6067581;23;20027;-84
2021/07/21 10:38:51;;;;;;;9.43;7.63;;;;;;;24.62;52.63;100657.38;6067021;23;20027;-84
2021/07/21 10:41:19;;;;;;;10.43;7.72;;;;;;;24.73;52.09;100652.56;6068952;23;20037;-84
2021/07/21 10:43:53;;;;;;;8.38;6.45;;;;;;;24.85;51.95;100653.16;6066720;23;20062;-85
2021/07/21 10:46:37;;;;;;;9.68;7.20;;;;;;;24.99;51.99;100656.25;6067393;23;20026;-84
2021/07/21 10:49:18;;;;;;;11.40;8.00;;;;;;;25.16;50.86;100648.25;6068724;23;20033;-84
2021/07/21 10:54:41;;;;;;;9.25;7.53;;;;;;;25.46;50.40;100648.72;6068048;23;20027;-84
2021/07/21 11:00:18;;;;;;;8.48;7.03;;;;;;;25.85;49.52;100634.66;6068483;23;20034;-85
2021/07/21 11:02:47;;;;;;;14.60;7.30;;;;;;;26.01;49.09;100633.84;6066309;23;20019;-84
2021/07/21 11:05:33;;;;;;;10.40;6.95;;;;;;;26.12;49.53;100635.34;6068151;23;20075;-84
2021/07/21 11:08:03;;;;;;;9.50;6.53;;;;;;;26.28;48.89;100628.31;6068116;23;20082;-84
2021/07/21 11:10:40;;;;;;;9.05;6.95;;;;;;;26.37;48.47;100631.81;6067848;23;20695;-84
2021/07/21 11:13:10;;;;;;;10.32;7.20;;;;;;;26.44;48.45;100629.28;6068145;23;20019;-85
2021/07/21 11:15:44;;;;;;;11.98;8.07;;;;;;;26.50;47.75;100625.91;6067435;23;20023;-84
2021/07/21 11:18:23;;;;;;;12.85;7.88;;;;;;;26.50;47.30;100631.31;6067798;23;20441;-84
2021/07/21 11:21:06;;;;;;;9.05;6.55;;;;;;;26.56;47.04;100627.06;6066060;23;20030;-85
2021/07/21 11:23:43;;;;;;;9.20;7.45;;;;;;;26.63;47.05;100625.38;6068088;23;20030;-84
2021/07/21 11:26:28;;;;;;;10.57;6.72;;;;;;;26.69;47.70;100624.69;6066521;23;20023;-85
2021/07/21 11:28:56;;;;;;;10.32;7.38;;;;;;;26.81;46.19;100627.84;6067173;23;20029;-85
2021/07/21 11:31:54;;;;;;;9.15;7.50;;;;;;;26.82;45.73;100618.72;6067894;23;20026;-85
2021/07/21 11:34:31;;;;;;;8.38;6.75;;;;;;;26.90;44.85;100620.56;6067308;23;20110;-84
2021/07/21 11:37:05;;;;;;;8.15;6.85;;;;;;;26.94;45.79;100624.59;6068303;23;20038;-84
2021/07/21 11:39:39;;;;;;;9.52;7.03;;;;;;;27.04;46.37;100616.31;6065958;23;20459;-86
2021/07/21 11:42:08;;;;;;;9.98;7.60;;;;;;;27.14;45.79;100618.81;6065972;23;20030;-85
2021/07/21 11:44:40;;;;;;;7.90;6.30;;;;;;;27.25;44.20;100617.59;6067083;23;20023;-85
2021/07/21 11:47:13;;;;;;;10.93;7.53;;;;;;;27.40;44.47;100612.25;6066123;23;20029;-84
2021/07/21 11:49:48;;;;;;;11.33;7.47;;;;;;;27.56;44.75;100614.03;6068006;23;20023;-85